createdAt,value
2022-09-07T00:00:10.337Z,21.50
2022-09-07T00:02:37.306Z,21.00
2022-09-07T00:05:04.561Z,20.50
2022-09-07T00:07:31.553Z,21.00
2022-09-07T00:09:58.611Z,23.60
2022-09-07T00:12:25.571Z,26.30
2022-09-07T00:14:52.602Z,31.10
2022-09-07T00:17:19.541Z,32.40
2022-09-07T00:19:46.482Z,33.20
2022-09-07T00:22:13.373Z,32.90
2022-09-07T00:24:40.355Z,31.60
2022-09-07T00:27:07.270Z,30.00
2022-09-07T00:29:34.162Z,30.00
2022-09-07T00:32:01.072Z,32.00
2022-09-07T00:34:27.956Z,34.20
2022-09-07T00:36:55.131Z,35.30
2022-09-07T00:39:22.055Z,36.80
2022-09-07T00:41:48.964Z,37.60
2022-09-07T00:44:43.928Z,39.60
2022-09-07T00:47:15.851Z,41.00
2022-09-07T00:49:45.757Z,38.90
2022-09-07T00:52:14.090Z,38.50
2022-09-07T00:54:46.634Z,37.90
2022-09-07T00:57:14.398Z,37.60
2022-09-07T00:59:48.288Z,37.40
2022-09-07T01:02:17.313Z,38.10
2022-09-07T01:04:49.946Z,42.60
2022-09-07T01:07:16.922Z,44.50
2022-09-07T01:09:47.350Z,42.40
2022-09-07T01:12:14.743Z,45.90
2022-09-07T01:14:45.344Z,61.10
2022-09-07T01:17:49.430Z,60.70
2022-09-07T01:20:36.266Z,64.10
2022-09-07T01:23:21.988Z,65.70
2022-09-07T01:25:57.747Z,59.90
2022-09-07T01:28:33.702Z,51.60
2022-09-07T01:31:09.555Z,49.10
2022-09-07T01:33:56.009Z,49.70
2022-09-07T01:36:49.975Z,47.70
2022-09-07T01:39:21.991Z,46.80
2022-09-07T01:42:14.275Z,49.00
2022-09-07T01:44:49.775Z,49.10
2022-09-07T01:47:31.422Z,51.00
2022-09-07T01:50:17.003Z,48.70
2022-09-07T01:52:47.016Z,49.80
2022-09-07T01:55:27.357Z,49.50
2022-09-07T01:58:12.349Z,48.70
2022-09-07T02:00:43.710Z,50.00
2022-09-07T02:03:16.380Z,52.70
2022-09-07T02:06:00.474Z,53.80
2022-09-07T02:08:29.443Z,58.70
2022-09-07T02:11:02.519Z,73.00
2022-09-07T02:13:42.603Z,99.90
2022-09-07T02:16:11.819Z,99.90
2022-09-07T02:18:51.406Z,99.90
2022-09-07T02:21:24.645Z,99.90
2022-09-07T02:23:57.016Z,99.90
2022-09-07T02:26:26.477Z,99.90
2022-09-07T02:28:53.681Z,99.90
2022-09-07T02:31:20.919Z,99.90
2022-09-07T02:33:47.917Z,99.90
2022-09-07T02:36:17.598Z,99.90
2022-09-07T02:38:44.568Z,99.90
2022-09-07T02:41:46.901Z,99.90
2022-09-07T02:44:18.662Z,99.90
2022-09-07T02:47:12.438Z,99.90
2022-09-07T02:49:42.058Z,99.90
2022-09-07T02:52:15.079Z,99.90
2022-09-07T02:55:05.528Z,98.50
2022-09-07T02:57:38.814Z,97.40
2022-09-07T03:00:11.287Z,96.10
2022-09-07T03:02:42.407Z,93.50
2022-09-07T03:05:47.135Z,94.00
2022-09-07T03:08:19.534Z,97.30
2022-09-07T03:10:47.643Z,98.70
2022-09-07T03:13:26.915Z,99.90
2022-09-07T03:15:56.196Z,99.90
2022-09-07T03:18:25.089Z,99.90
2022-09-07T03:20:52.739Z,99.90
2022-09-07T03:23:19.818Z,99.90
2022-09-07T03:25:49.200Z,99.90
2022-09-07T03:28:16.376Z,99.90
2022-09-07T03:30:44.516Z,99.90
2022-09-07T03:33:11.786Z,99.90
2022-09-07T03:35:38.703Z,99.90
2022-09-07T03:38:05.656Z,99.90
2022-09-07T03:40:33.177Z,99.90
2022-09-07T03:43:00.115Z,99.90
2022-09-07T03:45:27.099Z,99.90
2022-09-07T03:47:53.994Z,99.90
2022-09-07T03:50:20.888Z,99.90
2022-09-07T03:52:47.790Z,99.90
2022-09-07T03:55:14.751Z,99.90
2022-09-07T03:57:42.876Z,99.90
2022-09-07T04:00:10.466Z,99.90
2022-09-07T04:02:37.475Z,99.90
2022-09-07T04:05:04.758Z,99.90
2022-09-07T04:07:31.638Z,99.90
2022-09-07T04:09:58.718Z,99.90
2022-09-07T04:12:26.171Z,99.90
2022-09-07T04:14:53.115Z,99.90
2022-09-07T04:17:20.016Z,99.90
2022-09-07T04:19:46.890Z,99.90
2022-09-07T04:22:13.787Z,99.90
2022-09-07T04:24:40.692Z,99.90
2022-09-07T04:27:07.589Z,97.00
2022-09-07T04:29:34.623Z,94.40
2022-09-07T04:32:01.761Z,89.20
2022-09-07T04:34:28.735Z,82.20
2022-09-07T04:36:55.639Z,74.20
2022-09-07T04:39:22.986Z,66.50
2022-09-07T04:41:49.891Z,53.60
2022-09-07T04:44:17.234Z,54.70
2022-09-07T04:46:44.595Z,55.10
2022-09-07T04:49:12.361Z,55.60
2022-09-07T04:51:42.554Z,55.90
2022-09-07T04:54:10.496Z,54.60
2022-09-07T04:56:37.541Z,54.80
2022-09-07T04:59:04.898Z,54.80
2022-09-07T05:01:31.909Z,53.30
2022-09-07T05:04:03.395Z,53.30
2022-09-07T05:06:30.444Z,51.30
2022-09-07T05:08:59.071Z,52.40
2022-09-07T05:11:29.471Z,50.10
2022-09-07T05:14:00.869Z,47.50
2022-09-07T05:16:28.724Z,43.50
2022-09-07T05:18:57.835Z,35.40
2022-09-07T05:21:27.976Z,35.40
2022-09-07T05:23:57.027Z,32.90
2022-09-07T05:26:27.258Z,31.70
2022-09-07T05:31:41.867Z,28.60
2022-09-07T05:36:56.522Z,24.70
2022-09-07T05:39:23.816Z,21.70
2022-09-07T05:41:50.877Z,20.40
2022-09-07T05:47:04.930Z,17.80
2022-09-07T05:49:32.486Z,16.00
2022-09-07T05:51:59.381Z,15.40
2022-09-07T05:54:26.322Z,15.40
2022-09-07T05:56:53.213Z,15.10
2022-09-07T05:59:20.169Z,13.10
2022-09-07T06:01:47.229Z,13.10
2022-09-07T06:04:14.180Z,12.00
2022-09-07T06:06:41.130Z,10.70
2022-09-07T06:09:11.368Z,11.30
2022-09-07T06:11:38.605Z,10.00
2022-09-07T06:14:05.514Z,8.80
2022-09-07T06:16:35.032Z,7.70
2022-09-07T06:19:06.423Z,9.10
2022-09-07T06:21:36.842Z,9.00
2022-09-07T06:24:05.472Z,9.60
2022-09-07T06:26:32.874Z,9.40
2022-09-07T06:28:59.825Z,9.60
2022-09-07T06:31:28.835Z,9.00
2022-09-07T06:33:56.339Z,8.70
2022-09-07T06:36:27.973Z,8.80
2022-09-07T06:38:56.392Z,8.70
2022-09-07T06:44:12.898Z,8.70
2022-09-07T06:49:26.869Z,8.20
2022-09-07T06:51:53.778Z,6.50
2022-09-07T06:57:09.448Z,6.60
2022-09-07T06:59:37.770Z,6.60
2022-09-07T07:02:06.535Z,5.10
2022-09-07T07:04:39.620Z,5.20
2022-09-07T07:07:11.887Z,5.40
2022-09-07T07:09:39.090Z,5.40
2022-09-07T07:12:06.296Z,4.80
2022-09-07T07:14:35.533Z,4.90
2022-09-07T07:17:03.549Z,5.00
2022-09-07T07:19:30.516Z,5.90
2022-09-07T07:24:44.423Z,6.50
2022-09-07T07:27:11.527Z,5.30
2022-09-07T07:29:38.414Z,5.80
2022-09-07T07:32:05.730Z,6.20
2022-09-07T07:34:33.163Z,5.80
2022-09-07T07:37:00.095Z,6.70
2022-09-07T07:42:13.799Z,7.10
2022-09-07T07:44:40.651Z,7.00
2022-09-07T07:47:07.545Z,7.80
2022-09-07T07:49:34.413Z,7.70
2022-09-07T07:54:48.953Z,8.40
2022-09-07T07:57:18.935Z,22.30
2022-09-07T07:59:45.967Z,8.70
2022-09-07T08:02:17.475Z,9.40
2022-09-07T08:04:44.799Z,9.20
2022-09-07T08:07:12.212Z,9.90
2022-09-07T08:09:44.755Z,9.40
2022-09-07T08:12:16.782Z,9.00
2022-09-07T08:14:44.551Z,9.60
2022-09-07T08:17:13.575Z,9.90
2022-09-07T08:19:41.028Z,10.00
2022-09-07T08:22:09.555Z,10.70
2022-09-07T08:24:36.479Z,11.50
2022-09-07T08:27:04.115Z,10.70
2022-09-07T08:29:34.468Z,11.60
2022-09-07T08:32:03.642Z,11.00
2022-09-07T08:34:30.534Z,11.10
2022-09-07T08:36:57.330Z,9.90
2022-09-07T08:39:24.183Z,10.20
2022-09-07T08:42:03.388Z,10.30
2022-09-07T08:44:35.042Z,10.20
2022-09-07T08:47:15.053Z,10.00
2022-09-07T08:49:50.783Z,10.40
2022-09-07T08:52:27.280Z,9.80
2022-09-07T08:55:34.829Z,14.90
2022-09-07T08:58:45.286Z,9.70
2022-09-07T09:04:17.818Z,9.90
2022-09-07T09:06:53.861Z,9.70
2022-09-07T09:09:32.779Z,9.60
2022-09-07T09:12:11.060Z,11.00
2022-09-07T09:14:59.551Z,11.20
2022-09-07T09:17:39.511Z,10.40
2022-09-07T09:20:06.526Z,9.90
2022-09-07T09:22:34.324Z,11.10
2022-09-07T09:25:07.301Z,10.60
2022-09-07T09:27:34.177Z,10.90
2022-09-07T09:30:01.039Z,9.80
2022-09-07T09:32:41.401Z,10.00
2022-09-07T09:35:32.642Z,10.20
2022-09-07T09:37:59.460Z,10.60
2022-09-07T09:40:37.201Z,11.60
2022-09-07T09:43:20.567Z,12.10
2022-09-07T09:48:40.704Z,11.40
2022-09-07T09:53:57.597Z,11.50
2022-09-07T09:56:37.592Z,11.20
2022-09-07T10:05:32.543Z,11.90
2022-09-07T10:07:59.598Z,11.30
2022-09-07T10:10:28.359Z,10.80
2022-09-07T10:12:55.950Z,10.80
2022-09-07T10:15:41.806Z,11.50
2022-09-07T10:18:21.360Z,11.00
2022-09-07T10:20:48.928Z,11.00
2022-09-07T10:23:22.671Z,11.50
2022-09-07T10:25:49.635Z,11.00
2022-09-07T10:28:22.069Z,11.20
2022-09-07T10:30:58.990Z,11.40
2022-09-07T10:36:35.831Z,12.10
2022-09-07T10:39:12.274Z,11.50
2022-09-07T10:42:13.999Z,10.90
2022-09-07T10:45:02.471Z,11.50
2022-09-07T10:48:00.269Z,11.90
2022-09-07T10:50:38.153Z,11.70
2022-09-07T10:53:41.730Z,11.50
2022-09-07T10:56:18.293Z,12.70
2022-09-07T10:59:02.867Z,11.20
2022-09-07T11:01:59.527Z,11.70
2022-09-07T11:05:04.183Z,12.00
2022-09-07T11:07:33.693Z,12.50
2022-09-07T11:10:03.779Z,11.70
2022-09-07T11:12:39.580Z,11.80
2022-09-07T11:15:24.519Z,9.60
2022-09-07T11:17:54.362Z,7.20
2022-09-07T11:20:27.808Z,4.70
2022-09-07T11:23:23.041Z,4.40
2022-09-07T11:26:28.215Z,3.80
2022-09-07T11:29:33.654Z,2.90
2022-09-07T11:32:07.312Z,2.20
2022-09-07T11:34:52.143Z,1.30
2022-09-07T11:37:31.211Z,1.00
2022-09-07T11:40:24.214Z,1.00
2022-09-07T11:43:17.755Z,1.70
2022-09-07T11:45:49.720Z,1.00
2022-09-07T11:48:31.402Z,1.10
2022-09-07T11:51:21.695Z,1.90
2022-09-07T11:54:00.938Z,2.60
2022-09-07T11:56:36.954Z,5.10
2022-09-07T11:59:25.194Z,6.40
2022-09-07T12:01:54.759Z,5.90
2022-09-07T12:04:29.421Z,6.40
2022-09-07T12:07:11.119Z,5.90
2022-09-07T12:09:53.575Z,6.30
2022-09-07T12:12:38.802Z,5.70
2022-09-07T12:15:27.011Z,6.30
2022-09-07T12:17:56.576Z,7.00
2022-09-07T12:20:39.328Z,6.40
2022-09-07T12:23:31.625Z,6.30
2022-09-07T12:26:37.537Z,5.80
2022-09-07T12:29:17.621Z,4.50
2022-09-07T12:31:58.735Z,4.00
2022-09-07T12:34:32.849Z,3.00
2022-09-07T12:37:22.730Z,2.10
2022-09-07T12:39:50.273Z,2.30
2022-09-07T12:42:36.744Z,3.70
2022-09-07T12:45:39.184Z,4.20
2022-09-07T12:48:14.866Z,4.40
2022-09-07T12:50:56.683Z,4.40
2022-09-07T12:53:59.790Z,5.40
2022-09-07T12:57:29.158Z,4.70
2022-09-07T12:59:40.643Z,3.90
2022-09-07T13:02:10.477Z,3.20
2022-09-07T13:05:06.824Z,2.90
2022-09-07T13:07:39.318Z,2.70
2022-09-07T13:10:33.454Z,2.40
2022-09-07T13:13:06.911Z,1.40
2022-09-07T13:16:11.582Z,1.30
2022-09-07T13:18:41.180Z,1.50
2022-09-07T13:21:08.093Z,2.50
2022-09-07T13:23:35.009Z,3.10
2022-09-07T13:26:04.755Z,2.40
2022-09-07T13:28:56.154Z,3.40
2022-09-07T13:31:47.733Z,3.10
2022-09-07T13:34:34.755Z,4.30
2022-09-07T13:37:05.308Z,4.80
2022-09-07T13:39:53.501Z,5.60
2022-09-07T13:42:28.370Z,6.10
2022-09-07T13:44:57.732Z,6.50
2022-09-07T13:47:53.611Z,7.10
2022-09-07T13:50:39.415Z,6.80
2022-09-07T13:53:23.355Z,6.50
2022-09-07T13:56:10.501Z,5.80
2022-09-07T13:58:42.772Z,6.50
2022-09-07T14:01:12.727Z,7.30
2022-09-07T14:03:47.893Z,10.00
2022-09-07T14:06:20.776Z,10.80
2022-09-07T14:08:49.891Z,12.50
2022-09-07T14:11:50.786Z,12.50
2022-09-07T14:14:20.255Z,13.50
2022-09-07T14:17:10.925Z,15.80
2022-09-07T14:19:41.014Z,16.90
2022-09-07T14:22:07.795Z,16.80
2022-09-07T14:24:50.087Z,17.80
2022-09-07T14:27:24.107Z,14.70
2022-09-07T14:29:51.769Z,15.40
2022-09-07T14:32:23.259Z,15.30
2022-09-07T14:34:50.791Z,16.40
2022-09-07T14:37:19.343Z,15.50
2022-09-07T14:39:49.304Z,15.40
2022-09-07T14:42:23.106Z,13.80
2022-09-07T14:44:50.475Z,13.30
2022-09-07T14:47:33.987Z,11.90
2022-09-07T14:50:06.903Z,9.10
2022-09-07T14:52:42.355Z,6.70
2022-09-07T14:55:31.020Z,5.30
2022-09-07T14:58:15.980Z,2.60
2022-09-07T15:01:37.327Z,1.00
2022-09-07T15:03:51.010Z,7.90
2022-09-07T15:07:02.146Z,1.00
2022-09-07T15:09:30.824Z,1.00
2022-09-07T15:12:09.571Z,1.00
2022-09-07T15:14:36.388Z,1.00
2022-09-07T15:19:50.478Z,1.00
2022-09-07T15:22:18.849Z,1.00
2022-09-07T15:24:49.686Z,1.00
2022-09-07T15:27:21.711Z,1.00
2022-09-07T15:29:48.523Z,1.00
2022-09-07T15:32:18.017Z,1.00
2022-09-07T15:34:45.239Z,1.00
2022-09-07T15:39:59.449Z,1.00
2022-09-07T15:45:13.616Z,1.00
2022-09-07T15:47:43.961Z,1.00
2022-09-07T15:50:14.804Z,1.00
2022-09-07T15:52:41.642Z,1.00
2022-09-07T15:55:09.297Z,1.00
2022-09-07T15:58:02.157Z,1.00
2022-09-07T16:00:23.148Z,1.00
2022-09-07T16:03:07.276Z,1.00
2022-09-07T16:05:35.259Z,1.00
2022-09-07T16:10:54.114Z,1.00
2022-09-07T16:13:24.134Z,1.00
2022-09-07T16:15:51.333Z,1.00
2022-09-07T16:18:18.595Z,1.00
2022-09-07T16:20:46.175Z,1.00
2022-09-07T16:23:15.870Z,1.00
2022-09-07T16:25:58.814Z,1.00
2022-09-07T16:28:26.611Z,1.00
2022-09-07T16:30:53.829Z,1.00
2022-09-07T16:33:21.033Z,1.00
2022-09-07T16:35:59.580Z,1.00
2022-09-07T16:41:20.027Z,1.00
2022-09-07T16:43:47.387Z,1.00
2022-09-07T16:46:19.448Z,1.00
2022-09-07T16:48:46.378Z,1.00
2022-09-07T16:51:16.408Z,1.00
2022-09-07T16:53:43.518Z,1.00
2022-09-07T16:56:13.099Z,1.00
2022-09-07T16:58:42.569Z,1.00
2022-09-07T17:01:12.085Z,1.00
2022-09-07T17:03:39.667Z,1.00
2022-09-07T17:06:08.478Z,1.00
2022-09-07T17:08:36.902Z,1.00
2022-09-07T17:11:06.497Z,1.00
2022-09-07T17:13:34.972Z,1.00
2022-09-07T17:16:07.833Z,1.00
2022-09-07T17:21:22.722Z,1.00
2022-09-07T17:23:54.834Z,1.00
2022-09-07T17:26:26.052Z,1.00
2022-09-07T17:28:55.498Z,1.00
2022-09-07T17:34:13.399Z,5.60
2022-09-07T17:36:40.419Z,1.00
2022-09-07T17:39:22.729Z,1.00
2022-09-07T17:41:52.607Z,1.00
2022-09-07T17:44:20.439Z,1.00
2022-09-07T17:46:47.355Z,1.00
2022-09-07T17:49:16.493Z,1.00
2022-09-07T17:51:44.660Z,1.00
2022-09-07T17:54:14.796Z,1.00
2022-09-07T17:56:42.553Z,1.00
2022-09-07T18:01:57.832Z,2.50
2022-09-07T18:04:24.835Z,3.90
2022-09-07T18:06:53.249Z,5.80
2022-09-07T18:09:20.176Z,6.20
2022-09-07T18:11:48.952Z,7.60
2022-09-07T18:14:16.809Z,8.30
2022-09-07T18:16:45.724Z,9.40
2022-09-07T18:19:13.306Z,10.50
2022-09-07T18:21:42.235Z,11.10
2022-09-07T18:24:18.509Z,12.10
2022-09-07T18:26:50.900Z,12.90
2022-09-07T18:29:33.837Z,12.40
2022-09-07T18:32:05.721Z,12.60
2022-09-07T18:34:35.630Z,14.10
2022-09-07T18:37:02.548Z,14.70
2022-09-07T18:39:29.999Z,17.20
2022-09-07T18:41:57.175Z,19.30
2022-09-07T18:47:21.707Z,14.80
2022-09-07T18:49:51.227Z,14.60
2022-09-07T18:55:07.643Z,17.10
2022-09-07T18:57:36.164Z,19.20
2022-09-07T19:00:05.665Z,21.10
2022-09-07T19:02:33.550Z,23.10
2022-09-07T19:07:47.462Z,25.50
2022-09-07T19:10:16.762Z,26.40
2022-09-07T19:12:45.818Z,26.80
2022-09-07T19:15:13.536Z,25.10
2022-09-07T19:17:40.731Z,23.00
2022-09-07T19:20:08.060Z,22.90
2022-09-07T19:22:34.905Z,23.50
2022-09-07T19:25:04.121Z,25.20
2022-09-07T19:27:33.069Z,26.80
2022-09-07T19:30:00.154Z,26.90
2022-09-07T19:32:27.268Z,27.50
2022-09-07T19:34:55.540Z,28.30
2022-09-07T19:37:25.850Z,30.70
2022-09-07T19:39:56.273Z,31.30
2022-09-07T19:42:24.276Z,30.20
2022-09-07T19:44:51.889Z,29.80
2022-09-07T19:47:19.015Z,27.90
2022-09-07T19:49:46.037Z,27.50
2022-09-07T19:52:13.166Z,45.40
2022-09-07T19:54:40.523Z,28.10
2022-09-07T19:57:07.498Z,27.20
2022-09-07T19:59:34.300Z,24.70
2022-09-07T20:02:01.181Z,22.70
2022-09-07T20:04:28.288Z,22.10
2022-09-07T20:06:56.314Z,21.00
2022-09-07T20:09:23.132Z,20.30
2022-09-07T20:11:50.314Z,20.70
2022-09-07T20:14:17.511Z,20.40
2022-09-07T20:16:44.605Z,20.20
2022-09-07T20:19:14.886Z,21.30
2022-09-07T20:21:42.488Z,22.70
2022-09-07T20:24:12.272Z,22.80
2022-09-07T20:26:39.133Z,22.40
2022-09-07T20:29:26.214Z,21.70
2022-09-07T20:31:53.726Z,21.70
2022-09-07T20:34:20.894Z,23.30
2022-09-07T20:36:49.774Z,29.80
2022-09-07T20:39:17.031Z,23.10
2022-09-07T20:41:44.491Z,23.60
2022-09-07T20:44:11.630Z,23.40
2022-09-07T20:46:38.807Z,22.60
2022-09-07T20:49:05.777Z,21.00
2022-09-07T20:51:32.764Z,20.90
2022-09-07T20:53:59.632Z,17.70
2022-09-07T20:56:28.298Z,14.10
2022-09-07T20:59:00.319Z,11.40
2022-09-07T21:01:30.029Z,27.40
2022-09-07T21:03:59.220Z,16.80
2022-09-07T21:06:27.590Z,19.00
2022-09-07T21:08:56.347Z,19.10
2022-09-07T21:11:26.645Z,20.60
2022-09-07T21:14:07.567Z,22.60
2022-09-07T21:16:37.919Z,24.00
2022-09-07T21:19:08.007Z,25.10
2022-09-07T21:21:38.994Z,25.90
2022-09-07T21:24:07.857Z,26.60
2022-09-07T21:26:35.002Z,27.70
2022-09-07T21:29:05.000Z,27.80
2022-09-07T21:31:33.684Z,28.60
2022-09-07T21:34:02.019Z,28.80
2022-09-07T21:36:29.735Z,29.20
2022-09-07T21:38:57.136Z,29.70
2022-09-07T21:41:25.423Z,28.80
2022-09-07T21:43:56.618Z,30.30
2022-09-07T21:46:24.634Z,30.10
2022-09-07T21:48:51.848Z,30.90
2022-09-07T21:51:18.878Z,39.60
2022-09-07T21:53:45.754Z,45.50
2022-09-07T21:56:15.590Z,47.00
2022-09-07T21:58:43.701Z,46.90
2022-09-07T22:01:17.022Z,71.00
2022-09-07T22:03:48.879Z,47.80
2022-09-07T22:06:15.793Z,46.10
2022-09-07T22:08:43.026Z,45.40
2022-09-07T22:11:12.827Z,46.60
2022-09-07T22:13:40.735Z,51.50
2022-09-07T22:16:07.883Z,52.80
2022-09-07T22:18:38.006Z,57.60
2022-09-07T22:21:10.880Z,63.90
2022-09-07T22:23:44.966Z,69.30
2022-09-07T22:26:12.903Z,73.60
2022-09-07T22:28:39.761Z,99.90
2022-09-07T22:31:24.447Z,99.90
2022-09-07T22:33:52.832Z,99.90
2022-09-07T22:36:27.937Z,99.90
2022-09-07T22:38:56.729Z,99.90
2022-09-07T22:41:29.544Z,99.90
2022-09-07T22:43:56.786Z,99.90
2022-09-07T22:46:26.145Z,99.90
2022-09-07T22:48:58.218Z,99.90
2022-09-07T22:51:26.857Z,99.90
2022-09-07T22:53:54.859Z,99.90
2022-09-07T22:56:24.306Z,99.90
2022-09-07T22:58:54.722Z,99.90
2022-09-07T23:01:22.100Z,99.90
2022-09-07T23:03:49.650Z,99.90
2022-09-07T23:06:40.658Z,99.90
2022-09-07T23:09:12.540Z,99.90
2022-09-07T23:11:39.910Z,99.90
2022-09-07T23:14:15.001Z,99.90
2022-09-07T23:16:42.688Z,99.90
2022-09-07T23:19:12.048Z,99.90
2022-09-07T23:21:39.899Z,99.90
2022-09-07T23:24:06.848Z,99.90
2022-09-07T23:26:34.080Z,99.90
2022-09-07T23:29:04.397Z,99.90
2022-09-07T23:31:33.871Z,99.90
2022-09-07T23:34:02.065Z,99.90
2022-09-07T23:36:29.123Z,99.90
2022-09-07T23:38:57.311Z,99.90
2022-09-07T23:41:25.093Z,99.90
2022-09-07T23:43:52.993Z,99.90
2022-09-07T23:46:20.107Z,99.90
2022-09-07T23:48:48.361Z,99.90
2022-09-07T23:51:19.931Z,99.90
2022-09-07T23:53:48.311Z,99.90
2022-09-07T23:56:15.162Z,99.90
2022-09-07T23:58:42.052Z,99.90
